Aviation Digital Data Service (ADDS)

Output produced by METARs form (1253 UTC 07 February 2016)
found at http://aviationweather.gov/adds/metars/
 
KCLE 071132Z 0712/0818 16007KT P6SM SKC 
     FM071300 19009KT P6SM BKN250 
     FM072100 19008KT P6SM OVC100 
     FM080800 19007KT 6SM -RA OVC025 
     FM081000 18007KT 4SM -RA BR OVC015 
     FM081200 20007KT 2SM -SN BR OVC004